createdAt,value
2022-11-16T00:00:47.986Z,11.50
2022-11-16T00:01:50.483Z,11.50
2022-11-16T00:02:53.925Z,11.50
2022-11-16T00:03:59.941Z,11.50
2022-11-16T00:05:03.358Z,11.50
2022-11-16T00:06:07.871Z,11.50
2022-11-16T00:07:11.284Z,11.50
2022-11-16T00:08:13.684Z,11.50
2022-11-16T00:09:27.269Z,11.50
2022-11-16T00:10:31.264Z,11.50
2022-11-16T00:11:35.408Z,11.50
2022-11-16T00:12:39.069Z,11.50
2022-11-16T00:13:43.485Z,11.50
2022-11-16T00:14:47.061Z,11.50
2022-11-16T00:15:59.009Z,11.50
2022-11-16T00:27:22.270Z,11.50
2022-11-16T00:28:24.958Z,11.50
2022-11-16T00:29:29.261Z,11.50
2022-11-16T00:30:32.296Z,11.50
2022-11-16T00:31:35.592Z,11.50
2022-11-16T00:32:37.925Z,11.50
2022-11-16T00:33:43.543Z,11.50
2022-11-16T00:34:47.390Z,11.50
2022-11-16T00:35:49.977Z,11.50
2022-11-16T00:36:53.446Z,11.50
2022-11-16T00:37:55.767Z,11.50
2022-11-16T00:38:59.282Z,11.50
2022-11-16T00:40:05.658Z,11.50
2022-11-16T00:41:10.606Z,11.50
2022-11-16T00:42:13.015Z,11.50
2022-11-16T00:43:18.869Z,11.50
2022-11-16T00:44:24.044Z,11.50
2022-11-16T00:45:26.606Z,11.50
2022-11-16T00:46:30.742Z,11.50
2022-11-16T00:47:33.111Z,11.50
2022-11-16T00:48:36.707Z,11.50
2022-11-16T00:49:39.158Z,11.50
2022-11-16T00:50:42.600Z,11.50
2022-11-16T00:51:45.017Z,11.50
2022-11-16T00:52:48.308Z,11.50
2022-11-16T00:53:50.603Z,11.50
2022-11-16T00:54:54.064Z,11.50
2022-11-16T00:55:56.500Z,11.50
2022-11-16T00:57:00.373Z,11.50
2022-11-16T00:58:02.701Z,11.50
2022-11-16T00:59:07.670Z,11.50
2022-11-16T01:00:12.819Z,11.50
2022-11-16T01:01:16.772Z,11.50
2022-11-16T01:02:19.109Z,11.50
2022-11-16T01:03:24.710Z,11.50
2022-11-16T01:04:28.313Z,11.50
2022-11-16T01:05:35.133Z,11.50
2022-11-16T01:06:38.420Z,11.50
2022-11-16T01:07:41.590Z,11.50
2022-11-16T01:08:46.356Z,11.60
2022-11-16T01:09:48.860Z,11.50
2022-11-16T01:10:53.639Z,11.60
2022-11-16T01:12:10.559Z,11.60
2022-11-16T01:13:13.219Z,11.60
2022-11-16T01:14:19.779Z,11.50
2022-11-16T01:15:26.102Z,11.60
2022-11-16T01:16:28.402Z,11.60
2022-11-16T01:17:32.488Z,11.60
2022-11-16T01:18:35.008Z,11.60
2022-11-16T01:19:39.133Z,11.60
2022-11-16T01:20:41.670Z,11.60
2022-11-16T01:21:44.927Z,11.60
2022-11-16T01:22:48.466Z,11.60
2022-11-16T01:23:51.632Z,11.60
2022-11-16T01:24:55.067Z,11.60
2022-11-16T01:25:57.803Z,11.60
2022-11-16T01:27:02.178Z,11.60
2022-11-16T01:28:07.133Z,11.60
2022-11-16T01:29:21.281Z,11.60
2022-11-16T01:30:29.252Z,11.60
2022-11-16T01:31:37.932Z,11.60
2022-11-16T01:32:41.091Z,11.60
2022-11-16T01:33:44.327Z,11.60
2022-11-16T01:34:54.033Z,11.60
2022-11-16T01:36:02.456Z,11.60
2022-11-16T01:37:07.359Z,11.60
2022-11-16T01:38:14.521Z,11.60
2022-11-16T01:39:18.053Z,11.60
2022-11-16T01:40:29.147Z,11.60
2022-11-16T01:41:31.909Z,11.60
2022-11-16T01:42:37.528Z,11.60
2022-11-16T01:43:56.791Z,11.60
2022-11-16T01:45:22.924Z,11.60
2022-11-16T01:46:29.463Z,11.60
2022-11-16T01:47:33.235Z,11.60
2022-11-16T01:48:37.053Z,11.60
2022-11-16T01:49:45.306Z,11.60
2022-11-16T01:50:50.235Z,11.60
2022-11-16T01:51:58.117Z,11.60
2022-11-16T01:53:08.123Z,11.60
2022-11-16T01:54:19.217Z,11.60
2022-11-16T01:55:37.399Z,11.60
2022-11-16T01:57:03.078Z,11.60
2022-11-16T01:58:23.762Z,11.60
2022-11-16T01:59:34.076Z,11.60
2022-11-16T02:00:40.151Z,11.60
2022-11-16T02:02:03.727Z,11.60
2022-11-16T02:03:07.710Z,11.60
2022-11-16T02:04:17.543Z,11.60
2022-11-16T02:05:42.440Z,11.60
2022-11-16T02:07:01.566Z,11.60
2022-11-16T02:08:45.845Z,11.60
2022-11-16T02:10:15.015Z,11.60
2022-11-16T02:11:39.527Z,11.60
2022-11-16T02:13:08.175Z,11.60
2022-11-16T02:14:31.244Z,11.60
2022-11-16T02:15:45.885Z,11.60
2022-11-16T02:17:09.837Z,11.60
2022-11-16T02:18:26.203Z,11.60
2022-11-16T02:20:11.240Z,11.60
2022-11-16T02:21:32.919Z,11.60
2022-11-16T02:22:53.020Z,11.60
2022-11-16T02:24:23.658Z,11.70
2022-11-16T02:25:38.309Z,11.60
2022-11-16T02:27:22.802Z,11.60
2022-11-16T02:28:43.408Z,11.70
2022-11-16T02:29:52.035Z,11.70
2022-11-16T02:31:02.887Z,11.60
2022-11-16T02:32:13.258Z,11.60
2022-11-16T02:33:22.585Z,11.60
2022-11-16T02:34:27.390Z,11.70
2022-11-16T02:35:36.533Z,11.60
2022-11-16T02:36:44.308Z,11.60
2022-11-16T02:37:55.331Z,11.60
2022-11-16T02:39:05.074Z,11.60
2022-11-16T02:40:14.178Z,11.60
2022-11-16T02:41:21.197Z,11.60
2022-11-16T02:42:31.221Z,11.60
2022-11-16T02:43:40.196Z,11.60
2022-11-16T02:44:46.010Z,11.60
2022-11-16T02:45:53.807Z,11.60
2022-11-16T02:47:03.053Z,11.60
2022-11-16T02:48:13.931Z,11.60
2022-11-16T02:49:19.633Z,11.60
2022-11-16T02:50:25.661Z,11.60
2022-11-16T02:51:30.681Z,11.60
2022-11-16T02:52:38.240Z,11.60
2022-11-16T02:54:03.003Z,11.60
2022-11-16T02:55:09.520Z,11.60
2022-11-16T02:56:13.903Z,11.60
2022-11-16T02:57:40.159Z,11.60
2022-11-16T02:58:45.475Z,11.60
2022-11-16T02:59:53.860Z,11.60
2022-11-16T03:01:03.473Z,11.60
2022-11-16T03:02:20.974Z,11.60
2022-11-16T03:03:30.072Z,11.60
2022-11-16T03:04:42.922Z,11.60
2022-11-16T03:05:50.023Z,11.60
2022-11-16T03:06:57.736Z,11.60
2022-11-16T03:08:09.934Z,11.60
2022-11-16T03:09:19.391Z,11.60
2022-11-16T03:10:36.982Z,11.60
2022-11-16T03:12:09.164Z,11.60
2022-11-16T03:13:17.752Z,11.60
2022-11-16T03:14:24.497Z,11.60
2022-11-16T03:15:28.547Z,11.60
2022-11-16T03:16:37.819Z,11.60
2022-11-16T03:17:44.449Z,11.60
2022-11-16T03:18:50.333Z,11.60
2022-11-16T03:19:59.217Z,11.60
2022-11-16T03:21:10.799Z,11.60
2022-11-16T03:22:19.967Z,11.50
2022-11-16T03:23:23.139Z,11.60
2022-11-16T03:24:25.836Z,11.50
2022-11-16T03:25:37.198Z,11.50
2022-11-16T03:26:48.802Z,11.50
2022-11-16T03:28:03.864Z,11.50
2022-11-16T03:29:14.393Z,11.50
2022-11-16T03:30:23.739Z,11.50
2022-11-16T03:31:35.080Z,11.50
2022-11-16T03:32:47.495Z,11.50
2022-11-16T03:33:56.013Z,11.50
2022-11-16T03:35:07.846Z,11.50
2022-11-16T03:36:16.015Z,11.50
2022-11-16T03:37:20.285Z,11.50
2022-11-16T03:38:28.498Z,11.50
2022-11-16T03:39:36.906Z,11.50
2022-11-16T03:40:44.950Z,11.50
2022-11-16T03:41:50.958Z,11.50
2022-11-16T03:42:55.749Z,11.40
2022-11-16T03:44:03.302Z,11.50
2022-11-16T03:45:07.944Z,11.40
2022-11-16T03:46:12.839Z,11.40
2022-11-16T03:47:17.309Z,11.40
2022-11-16T03:48:21.767Z,11.40
2022-11-16T03:49:24.927Z,11.40
2022-11-16T03:50:30.137Z,11.40
2022-11-16T03:51:33.011Z,11.40
2022-11-16T03:52:39.046Z,11.40
2022-11-16T03:53:41.498Z,11.40
2022-11-16T03:54:46.557Z,11.40
2022-11-16T03:55:50.088Z,11.40
2022-11-16T03:56:53.748Z,11.40
2022-11-16T03:57:56.662Z,11.40
2022-11-16T03:59:01.127Z,11.40
2022-11-16T04:00:06.821Z,11.40
2022-11-16T04:01:16.709Z,11.40
2022-11-16T04:02:21.551Z,11.40
2022-11-16T04:03:26.722Z,11.40
2022-11-16T04:04:47.187Z,11.40
2022-11-16T04:06:07.399Z,11.40
2022-11-16T04:07:28.548Z,11.30
2022-11-16T04:08:49.630Z,11.40
2022-11-16T04:10:10.561Z,11.30
2022-11-16T04:11:33.389Z,11.30
2022-11-16T04:12:54.181Z,11.30
2022-11-16T04:14:15.284Z,11.30
2022-11-16T04:15:38.554Z,11.30
2022-11-16T04:17:00.320Z,11.30
2022-11-16T04:18:26.939Z,11.20
2022-11-16T04:19:48.272Z,11.20
2022-11-16T04:21:10.209Z,11.20
2022-11-16T04:22:40.565Z,11.20
2022-11-16T04:24:03.138Z,11.20
2022-11-16T04:25:14.042Z,11.20
2022-11-16T04:26:16.806Z,11.20
2022-11-16T04:27:43.666Z,11.20
2022-11-16T04:28:47.546Z,11.20
2022-11-16T04:29:50.339Z,11.20
2022-11-16T04:31:16.108Z,11.20
2022-11-16T04:32:43.297Z,11.20
2022-11-16T04:34:05.715Z,11.20
2022-11-16T04:35:27.520Z,11.20
2022-11-16T04:36:49.052Z,11.20
2022-11-16T04:37:53.803Z,11.20
2022-11-16T04:39:01.977Z,11.10
2022-11-16T04:40:07.107Z,11.10
2022-11-16T04:41:32.229Z,11.10
2022-11-16T04:42:35.806Z,11.10
2022-11-16T04:43:39.350Z,11.10
2022-11-16T04:45:00.476Z,11.10
2022-11-16T04:46:27.229Z,11.10
2022-11-16T04:47:30.734Z,11.10
2022-11-16T04:48:33.441Z,11.10
2022-11-16T04:49:40.185Z,11.10
2022-11-16T04:50:43.408Z,11.10
2022-11-16T04:51:46.904Z,11.10
2022-11-16T04:52:49.429Z,11.10
2022-11-16T04:53:52.867Z,11.10
2022-11-16T04:54:58.749Z,11.10
2022-11-16T04:56:02.968Z,11.10
2022-11-16T04:57:07.068Z,11.10
2022-11-16T04:58:11.073Z,11.10
2022-11-16T04:59:14.109Z,11.00
2022-11-16T05:00:18.805Z,11.00
2022-11-16T05:01:41.736Z,11.00
2022-11-16T05:02:45.137Z,11.00
2022-11-16T05:03:47.507Z,11.00
2022-11-16T05:04:52.355Z,11.00
2022-11-16T05:05:55.799Z,11.00
2022-11-16T05:06:59.302Z,11.00
2022-11-16T05:08:02.037Z,11.00
2022-11-16T05:09:08.496Z,11.00
2022-11-16T05:10:12.121Z,11.00
2022-11-16T05:11:16.248Z,11.00
2022-11-16T05:12:21.726Z,11.00
2022-11-16T05:13:28.200Z,10.90
2022-11-16T05:14:30.619Z,10.90
2022-11-16T05:15:34.722Z,10.90
2022-11-16T05:16:37.140Z,10.90
2022-11-16T05:17:43.142Z,10.90
2022-11-16T05:19:10.533Z,10.90
2022-11-16T05:20:36.561Z,10.90
2022-11-16T05:21:40.457Z,10.90
2022-11-16T05:22:45.549Z,10.90
2022-11-16T05:24:06.205Z,10.90
2022-11-16T05:25:11.296Z,10.90
2022-11-16T05:26:15.836Z,10.90
2022-11-16T05:27:22.260Z,10.80
2022-11-16T05:28:25.324Z,10.80
2022-11-16T05:29:31.483Z,10.80
2022-11-16T05:30:37.475Z,10.80
2022-11-16T05:31:40.690Z,10.80
2022-11-16T05:32:45.629Z,10.80
2022-11-16T05:33:49.459Z,10.80
2022-11-16T05:34:54.642Z,10.80
2022-11-16T05:35:59.803Z,10.80
2022-11-16T05:37:03.267Z,10.80
2022-11-16T05:38:06.069Z,10.80
2022-11-16T05:39:13.523Z,10.80
2022-11-16T05:40:18.128Z,10.70
2022-11-16T05:41:33.853Z,10.70
2022-11-16T05:42:36.244Z,10.70
2022-11-16T05:43:39.599Z,10.70
2022-11-16T05:44:51.606Z,10.70
2022-11-16T05:45:55.140Z,10.70
2022-11-16T05:46:57.897Z,10.70
2022-11-16T05:48:01.526Z,10.70
2022-11-16T05:49:04.267Z,10.70
2022-11-16T05:50:09.705Z,10.70
2022-11-16T05:51:17.617Z,10.70
2022-11-16T05:52:21.225Z,10.70
2022-11-16T05:53:23.562Z,10.60
2022-11-16T05:54:27.159Z,10.60
2022-11-16T05:55:30.543Z,10.70
2022-11-16T05:56:35.704Z,10.60
2022-11-16T05:57:38.441Z,10.60
2022-11-16T05:58:45.268Z,10.60
2022-11-16T05:59:47.891Z,10.60
2022-11-16T06:00:52.144Z,10.60
2022-11-16T06:01:56.388Z,10.50
2022-11-16T06:02:58.966Z,10.50
2022-11-16T06:04:06.679Z,10.50
2022-11-16T06:05:09.547Z,10.50
2022-11-16T06:06:13.168Z,10.50
2022-11-16T06:07:17.039Z,10.50
2022-11-16T06:08:20.567Z,10.50
2022-11-16T06:09:27.090Z,10.40
2022-11-16T06:10:31.009Z,10.40
2022-11-16T06:11:36.472Z,10.40
2022-11-16T06:12:40.807Z,10.40
2022-11-16T06:13:44.245Z,10.40
2022-11-16T06:14:47.392Z,10.40
2022-11-16T06:15:51.437Z,10.40
2022-11-16T06:16:53.954Z,10.40
2022-11-16T06:17:57.598Z,10.30
2022-11-16T06:19:01.182Z,10.30
2022-11-16T06:20:05.884Z,10.30
2022-11-16T06:21:09.540Z,10.30
2022-11-16T06:22:12.863Z,10.30
2022-11-16T06:23:16.816Z,10.30
2022-11-16T06:24:20.230Z,10.30
2022-11-16T06:25:25.277Z,10.30
2022-11-16T06:26:28.671Z,10.20
2022-11-16T06:27:32.046Z,10.20
2022-11-16T06:28:35.375Z,10.20
2022-11-16T06:29:39.026Z,10.20
2022-11-16T06:30:43.747Z,10.20
2022-11-16T06:31:47.620Z,10.10
2022-11-16T06:32:49.945Z,10.10
2022-11-16T06:33:55.895Z,10.10
2022-11-16T06:35:01.693Z,10.10
2022-11-16T06:36:09.151Z,10.10
2022-11-16T06:37:12.453Z,10.10
2022-11-16T06:38:19.576Z,10.00
2022-11-16T06:39:25.536Z,10.00
2022-11-16T06:40:28.196Z,10.00
2022-11-16T06:41:34.932Z,10.00
2022-11-16T06:42:42.116Z,10.00
2022-11-16T06:43:49.201Z,10.00
2022-11-16T06:44:55.790Z,10.00
2022-11-16T06:46:06.584Z,9.90
2022-11-16T06:47:09.677Z,9.90
2022-11-16T06:48:13.189Z,9.90
2022-11-16T06:49:15.744Z,9.90
2022-11-16T06:50:20.145Z,9.90
2022-11-16T06:51:23.824Z,9.80
2022-11-16T06:52:26.497Z,9.80
2022-11-16T06:53:31.251Z,9.80
2022-11-16T06:54:35.974Z,9.80
2022-11-16T06:55:39.519Z,9.80
2022-11-16T06:56:43.361Z,9.80
2022-11-16T06:57:48.364Z,9.70
2022-11-16T06:58:53.625Z,9.70
2022-11-16T06:59:56.624Z,9.70
2022-11-16T07:01:07.615Z,9.70
2022-11-16T07:02:11.852Z,9.70
2022-11-16T07:03:15.821Z,9.70
2022-11-16T07:04:19.757Z,9.60
2022-11-16T07:05:29.439Z,9.60
2022-11-16T07:06:33.449Z,9.60
2022-11-16T07:07:36.361Z,9.60
2022-11-16T07:08:43.538Z,9.60
2022-11-16T07:09:47.429Z,9.60
2022-11-16T07:10:53.353Z,9.50
2022-11-16T07:11:55.708Z,9.50
2022-11-16T07:13:04.215Z,9.50
2022-11-16T07:14:08.273Z,9.50
2022-11-16T07:15:12.430Z,9.50
2022-11-16T07:16:17.234Z,9.50
2022-11-16T07:17:27.523Z,9.50
2022-11-16T07:18:33.593Z,9.50
2022-11-16T07:19:37.118Z,9.50
2022-11-16T07:20:41.750Z,9.50
2022-11-16T07:21:44.837Z,9.50
2022-11-16T07:22:52.186Z,9.50
2022-11-16T07:23:57.163Z,9.50
2022-11-16T07:24:59.569Z,9.50
2022-11-16T07:26:04.527Z,9.50
2022-11-16T07:27:14.493Z,9.50
2022-11-16T07:28:21.471Z,9.50
2022-11-16T07:29:24.916Z,9.50
2022-11-16T07:30:46.882Z,9.50
2022-11-16T07:31:55.713Z,9.50
2022-11-16T07:33:10.584Z,9.50
2022-11-16T07:34:42.083Z,9.50
2022-11-16T07:35:49.496Z,9.50
2022-11-16T07:36:52.211Z,9.50
2022-11-16T07:37:55.669Z,9.50
2022-11-16T07:38:59.477Z,9.60
2022-11-16T07:40:03.378Z,9.50
2022-11-16T07:41:10.386Z,9.60
2022-11-16T07:42:17.524Z,9.60
2022-11-16T07:43:52.629Z,9.60
2022-11-16T07:45:00.362Z,9.60
2022-11-16T07:46:30.337Z,9.60
2022-11-16T07:47:29.080Z,9.60
2022-11-16T07:48:34.598Z,9.70
2022-11-16T07:49:56.929Z,9.70
2022-11-16T07:51:05.485Z,9.80
2022-11-16T07:52:10.314Z,9.90
2022-11-16T07:53:33.090Z,10.20
2022-11-16T07:54:37.036Z,10.50
2022-11-16T07:55:42.598Z,10.90
2022-11-16T07:56:46.360Z,11.30
2022-11-16T07:57:53.624Z,11.60
2022-11-16T07:58:59.537Z,12.00
2022-11-16T08:00:04.367Z,12.40
2022-11-16T08:01:18.636Z,12.70
2022-11-16T08:02:23.442Z,13.00
2022-11-16T08:03:29.267Z,13.20
2022-11-16T08:04:34.041Z,13.40
2022-11-16T08:05:36.616Z,13.60
2022-11-16T08:06:40.176Z,13.90
2022-11-16T08:07:43.083Z,14.10
2022-11-16T08:08:46.987Z,14.40
2022-11-16T08:09:53.686Z,14.60
2022-11-16T08:11:01.679Z,14.90
2022-11-16T08:12:04.443Z,15.10
2022-11-16T08:13:09.315Z,15.40
2022-11-16T08:14:12.804Z,15.60
2022-11-16T08:15:16.246Z,15.90
2022-11-16T08:16:20.767Z,16.20
2022-11-16T08:17:26.986Z,16.40
2022-11-16T08:18:30.171Z,16.60
2022-11-16T08:19:33.893Z,16.90
2022-11-16T08:20:37.986Z,17.10
2022-11-16T08:21:41.020Z,17.30
2022-11-16T08:22:45.154Z,17.50
2022-11-16T08:23:47.737Z,17.70
2022-11-16T08:24:53.032Z,18.00
2022-11-16T08:25:59.399Z,18.20
2022-11-16T08:27:03.355Z,18.40
2022-11-16T08:28:05.949Z,18.60
2022-11-16T08:29:09.324Z,18.80
2022-11-16T08:30:15.195Z,18.90
2022-11-16T08:31:24.104Z,19.10
2022-11-16T08:32:30.743Z,19.30
2022-11-16T08:33:33.514Z,19.50
2022-11-16T08:34:37.173Z,19.60
2022-11-16T08:35:40.514Z,19.80
2022-11-16T08:36:44.135Z,19.90
2022-11-16T08:37:48.251Z,20.00
2022-11-16T08:38:54.661Z,20.10
2022-11-16T08:40:03.392Z,20.20
2022-11-16T08:41:06.566Z,20.40
2022-11-16T08:42:10.179Z,20.50
2022-11-16T08:43:18.707Z,20.70
2022-11-16T08:44:24.633Z,20.90
2022-11-16T08:45:31.297Z,21.00
2022-11-16T08:46:34.888Z,21.20
2022-11-16T08:48:03.539Z,21.30
2022-11-16T08:49:08.207Z,21.40
2022-11-16T08:51:19.610Z,21.70
2022-11-16T08:52:27.966Z,21.80
2022-11-16T08:53:31.488Z,22.00
2022-11-16T08:54:35.114Z,22.20
2022-11-16T08:55:42.580Z,22.40
2022-11-16T08:56:46.378Z,22.50
2022-11-16T08:57:49.363Z,22.60
2022-11-16T08:58:58.901Z,22.70
2022-11-16T09:00:05.736Z,22.80
2022-11-16T09:01:11.147Z,23.00
2022-11-16T09:02:13.784Z,23.10
2022-11-16T09:03:17.448Z,23.10
2022-11-16T09:04:21.055Z,23.20
2022-11-16T09:05:24.181Z,23.30
2022-11-16T09:06:29.265Z,23.40
2022-11-16T09:07:31.874Z,23.40
2022-11-16T09:08:37.388Z,23.50
2022-11-16T09:09:40.807Z,23.50
2022-11-16T09:10:44.656Z,23.60
2022-11-16T09:11:48.271Z,23.70
2022-11-16T09:12:53.068Z,23.80
2022-11-16T09:15:01.593Z,24.00
2022-11-16T09:16:06.569Z,24.10
2022-11-16T09:17:09.987Z,24.20
2022-11-16T09:18:14.636Z,24.20
2022-11-16T09:19:18.020Z,24.30
2022-11-16T09:20:20.633Z,24.30
2022-11-16T09:21:29.296Z,24.40
2022-11-16T09:22:32.898Z,24.30
2022-11-16T09:23:35.413Z,24.20
2022-11-16T09:24:41.039Z,24.20
2022-11-16T09:25:45.379Z,24.10
2022-11-16T09:26:48.861Z,23.90
2022-11-16T09:27:51.292Z,23.90
2022-11-16T09:28:59.785Z,23.80
2022-11-16T09:30:07.396Z,23.80
2022-11-16T09:31:10.331Z,23.70
2022-11-16T09:32:13.818Z,23.80
2022-11-16T09:33:19.634Z,23.90
2022-11-16T09:34:22.300Z,23.90
2022-11-16T09:35:25.658Z,24.00
2022-11-16T09:36:29.146Z,24.20
2022-11-16T09:37:32.551Z,24.30
2022-11-16T09:38:55.690Z,24.30
2022-11-16T09:40:02.907Z,24.20
2022-11-16T09:41:20.923Z,24.10
2022-11-16T09:42:44.366Z,23.90
2022-11-16T09:43:57.366Z,23.80
2022-11-16T09:45:07.811Z,23.70
2022-11-16T09:46:24.810Z,23.70
2022-11-16T09:47:49.948Z,23.70
2022-11-16T09:49:01.273Z,23.70
2022-11-16T09:50:06.488Z,23.80
2022-11-16T09:52:27.470Z,24.00
2022-11-16T09:53:37.471Z,24.10
2022-11-16T09:54:43.453Z,24.20
2022-11-16T09:55:52.167Z,24.30
2022-11-16T09:57:05.650Z,24.50
2022-11-16T09:58:19.010Z,24.60
2022-11-16T09:59:29.316Z,24.70
2022-11-16T10:00:36.193Z,24.80
2022-11-16T10:01:47.706Z,24.90
2022-11-16T10:03:01.796Z,25.10
2022-11-16T10:04:15.081Z,25.20
2022-11-16T10:05:26.063Z,25.30
2022-11-16T10:06:42.820Z,25.40
2022-11-16T10:07:48.498Z,25.50
2022-11-16T10:08:56.645Z,25.50
2022-11-16T10:10:00.656Z,25.50
2022-11-16T10:12:00.816Z,25.50
2022-11-16T10:13:20.329Z,25.40
2022-11-16T10:14:44.225Z,25.30
2022-11-16T10:16:02.791Z,25.20
2022-11-16T10:17:12.320Z,25.20
2022-11-16T10:18:37.828Z,25.30
2022-11-16T10:19:51.193Z,25.20
2022-11-16T10:21:15.218Z,25.00
2022-11-16T10:22:41.022Z,24.90
2022-11-16T10:24:05.288Z,24.90
2022-11-16T10:25:16.689Z,24.80
2022-11-16T10:26:33.340Z,24.80
2022-11-16T10:27:58.459Z,24.70
2022-11-16T10:29:33.661Z,24.50
2022-11-16T10:30:44.713Z,24.30
2022-11-16T10:32:05.400Z,24.40
2022-11-16T10:33:16.940Z,24.40
2022-11-16T10:34:25.752Z,24.20
2022-11-16T10:35:34.520Z,24.20
2022-11-16T10:37:48.319Z,23.90
2022-11-16T10:38:57.009Z,23.70
2022-11-16T10:40:00.388Z,23.60
2022-11-16T10:41:15.457Z,23.50
2022-11-16T10:42:26.141Z,23.40
2022-11-16T10:43:33.407Z,23.40
2022-11-16T10:44:42.169Z,23.50
2022-11-16T10:45:53.010Z,23.50
2022-11-16T10:47:03.029Z,23.60
2022-11-16T10:48:20.753Z,23.70
2022-11-16T10:49:34.304Z,23.90
2022-11-16T10:50:43.406Z,24.00
2022-11-16T10:51:45.660Z,24.20
2022-11-16T10:52:49.880Z,24.30
2022-11-16T10:53:55.667Z,24.30
2022-11-16T10:54:58.191Z,24.30
2022-11-16T10:56:21.996Z,24.30
2022-11-16T10:57:26.541Z,24.40
2022-11-16T10:58:56.463Z,24.50
2022-11-16T11:00:02.419Z,24.60
2022-11-16T11:01:09.475Z,24.50
2022-11-16T11:02:39.900Z,24.50
2022-11-16T11:03:43.298Z,24.50
2022-11-16T11:05:05.288Z,24.40
2022-11-16T11:06:13.822Z,24.30
2022-11-16T11:07:30.010Z,24.20
2022-11-16T11:08:34.031Z,24.20
2022-11-16T11:09:41.735Z,24.20
2022-11-16T11:11:01.830Z,24.30
2022-11-16T11:13:36.992Z,24.00
2022-11-16T11:14:39.468Z,23.80
2022-11-16T11:15:45.749Z,23.70
2022-11-16T11:16:53.435Z,23.60
2022-11-16T11:18:26.919Z,23.60
2022-11-16T11:19:29.686Z,23.60
2022-11-16T11:20:33.131Z,23.70
2022-11-16T11:21:35.660Z,23.70
2022-11-16T11:22:48.220Z,23.80
2022-11-16T11:24:06.046Z,23.80
2022-11-16T11:25:26.053Z,23.90
2022-11-16T11:26:38.696Z,24.00
2022-11-16T11:27:41.042Z,24.00
2022-11-16T11:28:50.218Z,24.10
2022-11-16T11:29:58.675Z,24.10
2022-11-16T11:31:07.425Z,24.20
2022-11-16T11:32:23.552Z,24.20
2022-11-16T11:33:32.399Z,24.30
2022-11-16T11:34:42.176Z,24.40
2022-11-16T11:35:45.526Z,24.50
2022-11-16T11:36:53.773Z,24.50
2022-11-16T11:38:07.236Z,24.50
2022-11-16T11:39:35.775Z,24.50
2022-11-16T11:40:38.192Z,24.50
2022-11-16T11:41:45.786Z,24.60
2022-11-16T11:42:58.651Z,24.70
2022-11-16T11:44:04.328Z,24.70
2022-11-16T11:45:11.758Z,24.80
2022-11-16T11:46:56.179Z,24.90
2022-11-16T11:48:01.063Z,25.00
2022-11-16T11:49:15.576Z,25.00
2022-11-16T11:50:21.517Z,24.90
2022-11-16T11:51:32.681Z,24.80
2022-11-16T11:52:45.738Z,24.60
2022-11-16T11:53:56.455Z,24.30
2022-11-16T11:55:00.259Z,23.90
2022-11-16T11:56:03.791Z,23.50
2022-11-16T11:57:15.571Z,23.00
2022-11-16T11:58:20.133Z,22.50
2022-11-16T12:00:44.115Z,21.70
2022-11-16T12:02:07.967Z,21.30
2022-11-16T12:03:50.081Z,20.80
2022-11-16T12:05:35.637Z,20.20
2022-11-16T12:06:48.745Z,19.70
2022-11-16T12:08:14.753Z,19.20
2022-11-16T12:09:33.582Z,18.80
2022-11-16T12:10:40.156Z,18.50
2022-11-16T12:12:02.123Z,18.30
2022-11-16T12:13:30.427Z,18.10
2022-11-16T12:15:06.513Z,17.80
2022-11-16T12:16:18.561Z,17.60
2022-11-16T12:17:37.094Z,17.50
2022-11-16T12:18:58.013Z,17.40
2022-11-16T12:20:17.593Z,17.50
2022-11-16T12:21:31.307Z,17.70
2022-11-16T12:23:03.616Z,18.00
2022-11-16T12:24:38.058Z,18.30
2022-11-16T12:25:53.604Z,18.70
2022-11-16T12:27:15.167Z,19.10
2022-11-16T12:28:48.497Z,19.40
2022-11-16T12:30:04.481Z,19.60
2022-11-16T12:31:35.003Z,19.90
2022-11-16T12:33:11.678Z,20.00
2022-11-16T12:34:25.584Z,20.30
2022-11-16T12:35:45.641Z,20.40
2022-11-16T12:37:01.565Z,20.60
2022-11-16T12:38:23.426Z,20.80
2022-11-16T12:39:36.292Z,20.90
2022-11-16T12:40:55.645Z,21.00
2022-11-16T12:42:34.453Z,21.10
2022-11-16T12:43:47.366Z,21.30
2022-11-16T12:45:42.369Z,21.40
2022-11-16T12:47:00.829Z,21.50
2022-11-16T12:48:51.643Z,21.50
2022-11-16T12:50:27.122Z,21.50
2022-11-16T12:51:53.698Z,21.50
2022-11-16T12:53:21.246Z,21.50
2022-11-16T12:55:28.600Z,21.60
2022-11-16T12:56:35.793Z,21.50
2022-11-16T12:57:50.074Z,21.50
2022-11-16T12:59:23.741Z,21.30
2022-11-16T13:00:28.151Z,21.10
2022-11-16T13:01:37.577Z,20.80
2022-11-16T13:03:14.422Z,20.50
2022-11-16T13:04:25.800Z,20.10
2022-11-16T13:05:45.296Z,19.70
2022-11-16T13:06:57.524Z,19.50
2022-11-16T13:08:05.530Z,19.20
2022-11-16T13:09:16.909Z,19.00
2022-11-16T13:10:23.463Z,18.80
2022-11-16T13:11:31.576Z,18.70
2022-11-16T13:12:37.252Z,18.50
2022-11-16T13:13:42.032Z,18.50
2022-11-16T13:14:49.729Z,18.50
2022-11-16T13:15:53.193Z,18.60
2022-11-16T13:16:59.326Z,18.60
2022-11-16T13:18:07.146Z,18.60
2022-11-16T13:19:15.450Z,18.50
2022-11-16T13:20:34.915Z,18.40
2022-11-16T13:21:50.860Z,18.20
2022-11-16T13:23:00.615Z,18.00
2022-11-16T13:24:25.915Z,17.80
2022-11-16T13:25:36.614Z,17.60
2022-11-16T13:26:49.276Z,17.30
2022-11-16T13:27:58.413Z,17.10
2022-11-16T13:29:10.282Z,17.00
2022-11-16T13:30:21.374Z,16.80
2022-11-16T13:31:33.559Z,16.60
2022-11-16T13:32:56.201Z,16.50
2022-11-16T13:34:02.907Z,16.30
2022-11-16T13:36:47.774Z,16.10
2022-11-16T13:37:53.059Z,16.00
2022-11-16T13:38:55.379Z,15.80
2022-11-16T13:40:36.855Z,15.70
2022-11-16T13:41:42.267Z,15.60
2022-11-16T13:43:20.178Z,15.50
2022-11-16T13:44:28.429Z,15.40
2022-11-16T13:45:37.401Z,15.30
2022-11-16T13:47:01.032Z,15.30
2022-11-16T13:48:15.930Z,15.20
2022-11-16T13:49:29.331Z,15.20
2022-11-16T13:50:38.519Z,15.20
2022-11-16T13:51:50.258Z,15.20
2022-11-16T13:54:45.373Z,15.20
2022-11-16T13:55:58.457Z,15.20
2022-11-16T13:57:06.459Z,15.20
2022-11-16T13:58:20.044Z,15.20
2022-11-16T13:59:29.505Z,15.20
2022-11-16T14:00:34.854Z,15.20
2022-11-16T14:01:57.723Z,15.10
2022-11-16T14:03:31.370Z,15.10
2022-11-16T14:04:54.605Z,15.00
2022-11-16T14:05:58.770Z,14.90
2022-11-16T14:07:02.747Z,14.90
2022-11-16T14:08:53.786Z,14.90
2022-11-16T14:09:56.252Z,14.80
2022-11-16T14:11:02.947Z,14.80
2022-11-16T14:12:58.188Z,14.70
2022-11-16T14:14:05.729Z,14.70
2022-11-16T14:15:15.985Z,14.60
2022-11-16T14:16:46.554Z,14.50
2022-11-16T14:17:57.781Z,14.50
2022-11-16T14:19:03.227Z,14.50
2022-11-16T14:20:12.601Z,14.40
2022-11-16T14:21:36.053Z,14.30
2022-11-16T14:23:27.775Z,14.30
2022-11-16T14:24:39.229Z,14.30
2022-11-16T14:25:50.034Z,14.20
2022-11-16T14:27:07.997Z,14.20
2022-11-16T14:28:34.128Z,14.10
2022-11-16T14:29:58.176Z,14.10
2022-11-16T14:31:15.281Z,14.10
2022-11-16T14:32:24.510Z,14.00
2022-11-16T14:33:35.909Z,14.00
2022-11-16T14:34:44.731Z,14.00
2022-11-16T14:35:52.737Z,13.90
2022-11-16T14:36:58.368Z,13.90
2022-11-16T14:38:08.785Z,13.90
2022-11-16T14:39:38.702Z,13.90
2022-11-16T14:40:47.103Z,13.80
2022-11-16T14:41:51.630Z,13.80
2022-11-16T14:43:16.085Z,13.80
2022-11-16T14:44:22.712Z,13.80
2022-11-16T14:45:28.091Z,13.80
2022-11-16T14:46:36.692Z,13.80
2022-11-16T14:47:41.944Z,13.80
2022-11-16T14:48:47.614Z,13.80
2022-11-16T14:49:54.329Z,13.70
2022-11-16T14:51:06.470Z,13.80
2022-11-16T14:52:15.577Z,13.80
2022-11-16T14:53:19.842Z,13.70
2022-11-16T14:54:31.220Z,13.70
2022-11-16T14:55:43.572Z,13.70
2022-11-16T14:57:02.053Z,13.70
2022-11-16T14:58:09.175Z,13.70
2022-11-16T14:59:18.165Z,13.60
2022-11-16T15:00:25.742Z,13.60
2022-11-16T15:01:35.353Z,13.60
2022-11-16T15:02:40.912Z,13.50
2022-11-16T15:03:53.859Z,13.50
2022-11-16T15:04:57.307Z,13.50
2022-11-16T15:06:01.917Z,13.50
2022-11-16T15:07:06.969Z,13.50
2022-11-16T15:08:19.232Z,13.50
2022-11-16T15:09:28.567Z,13.50
2022-11-16T15:10:31.005Z,13.40
2022-11-16T15:11:59.514Z,13.40
2022-11-16T15:13:03.127Z,13.50
2022-11-16T15:14:09.106Z,13.50
2022-11-16T15:15:18.510Z,13.50
2022-11-16T15:16:22.412Z,13.50
2022-11-16T15:17:33.039Z,13.50
2022-11-16T15:18:35.985Z,13.50
2022-11-16T15:19:39.500Z,13.50
2022-11-16T15:20:51.939Z,13.50
2022-11-16T15:21:58.077Z,13.40
2022-11-16T15:23:06.232Z,13.40
2022-11-16T15:24:30.843Z,13.40
2022-11-16T15:25:38.123Z,13.40
2022-11-16T15:26:40.960Z,13.40